sensor_id;sensor_type;location;lat;lon;timestamp;temperature;humidity
53208;DHT22;39093;52.788;6.940;2024-03-17T00:01:04;4.80;99.90
53208;DHT22;39093;52.788;6.940;2024-03-17T00:03:31;4.70;99.90
53208;DHT22;39093;52.788;6.940;2024-03-17T00:06:00;4.80;99.90
53208;DHT22;39093;52.788;6.940;2024-03-17T00:08:27;4.70;99.90
53208;DHT22;39093;52.788;6.940;2024-03-17T00:10:53;4.70;99.90
53208;DHT22;39093;52.788;6.940;2024-03-17T00:13:23;4.70;99.90
53208;DHT22;39093;52.788;6.940;2024-03-17T00:15:50;4.70;99.90
53208;DHT22;39093;52.788;6.940;2024-03-17T00:18:17;4.70;99.90
53208;DHT22;39093;52.788;6.940;2024-03-17T00:20:43;4.70;99.90
53208;DHT22;39093;52.788;6.940;2024-03-17T00:23:09;4.60;99.90
53208;DHT22;39093;52.788;6.940;2024-03-17T00:25:38;4.60;99.90
53208;DHT22;39093;52.788;6.940;2024-03-17T00:28:04;4.50;99.90
53208;DHT22;39093;52.788;6.940;2024-03-17T00:30:30;4.50;99.90
53208;DHT22;39093;52.788;6.940;2024-03-17T00:32:57;4.50;99.90
53208;DHT22;39093;52.788;6.940;2024-03-17T00:35:26;4.40;99.90
53208;DHT22;39093;52.788;6.940;2024-03-17T00:37:52;4.40;99.90
53208;DHT22;39093;52.788;6.940;2024-03-17T00:40:19;4.40;99.90
53208;DHT22;39093;52.788;6.940;2024-03-17T00:42:45;4.40;99.90
53208;DHT22;39093;52.788;6.940;2024-03-17T00:45:12;4.40;99.90
53208;DHT22;39093;52.788;6.940;2024-03-17T00:47:38;4.30;99.90
53208;DHT22;39093;52.788;6.940;2024-03-17T00:50:05;4.30;99.90
53208;DHT22;39093;52.788;6.940;2024-03-17T00:52:33;4.30;99.90
53208;DHT22;39093;52.788;6.940;2024-03-17T00:54:59;4.30;99.90
53208;DHT22;39093;52.788;6.940;2024-03-17T00:57:25;4.30;99.90
53208;DHT22;39093;52.788;6.940;2024-03-17T00:59:51;4.30;99.90
53208;DHT22;39093;52.788;6.940;2024-03-17T01:02:18;4.20;99.90
53208;DHT22;39093;52.788;6.940;2024-03-17T01:04:45;4.20;99.90
53208;DHT22;39093;52.788;6.940;2024-03-17T01:07:11;4.20;99.90
53208;DHT22;39093;52.788;6.940;2024-03-17T01:09:38;4.20;99.90
53208;DHT22;39093;52.788;6.940;2024-03-17T01:12:04;4.20;99.90
53208;DHT22;39093;52.788;6.940;2024-03-17T01:14:31;4.20;99.90
53208;DHT22;39093;52.788;6.940;2024-03-17T01:16:59;4.20;99.90
53208;DHT22;39093;52.788;6.940;2024-03-17T01:19:25;4.20;99.90
53208;DHT22;39093;52.788;6.940;2024-03-17T01:21:52;4.20;99.90
53208;DHT22;39093;52.788;6.940;2024-03-17T01:24:18;4.20;99.90
53208;DHT22;39093;52.788;6.940;2024-03-17T01:26:44;4.10;99.90
53208;DHT22;39093;52.788;6.940;2024-03-17T01:29:11;4.20;99.90
53208;DHT22;39093;52.788;6.940;2024-03-17T01:31:37;4.20;99.90
53208;DHT22;39093;52.788;6.940;2024-03-17T01:34:03;4.10;99.90
53208;DHT22;39093;52.788;6.940;2024-03-17T01:36:29;4.10;99.90
53208;DHT22;39093;52.788;6.940;2024-03-17T01:38:55;4.10;99.90
53208;DHT22;39093;52.788;6.940;2024-03-17T01:41:21;4.10;99.90
53208;DHT22;39093;52.788;6.940;2024-03-17T01:43:47;4.10;99.90
53208;DHT22;39093;52.788;6.940;2024-03-17T01:46:16;4.10;99.90
53208;DHT22;39093;52.788;6.940;2024-03-17T01:48:42;4.10;99.90
53208;DHT22;39093;52.788;6.940;2024-03-17T01:51:10;4.00;99.90
53208;DHT22;39093;52.788;6.940;2024-03-17T01:53:37;3.90;99.90
53208;DHT22;39093;52.788;6.940;2024-03-17T01:56:05;4.00;99.90
53208;DHT22;39093;52.788;6.940;2024-03-17T01:58:34;4.00;99.90
53208;DHT22;39093;52.788;6.940;2024-03-17T02:01:01;4.00;99.90
53208;DHT22;39093;52.788;6.940;2024-03-17T02:03:27;4.00;99.90
53208;DHT22;39093;52.788;6.940;2024-03-17T02:05:53;4.00;99.90
53208;DHT22;39093;52.788;6.940;2024-03-17T02:08:19;4.00;99.90
53208;DHT22;39093;52.788;6.940;2024-03-17T02:10:47;4.00;99.90
53208;DHT22;39093;52.788;6.940;2024-03-17T02:13:17;4.00;99.90
53208;DHT22;39093;52.788;6.940;2024-03-17T02:15:43;4.00;99.90
53208;DHT22;39093;52.788;6.940;2024-03-17T02:18:09;4.00;99.90
53208;DHT22;39093;52.788;6.940;2024-03-17T02:20:35;4.00;99.90
53208;DHT22;39093;52.788;6.940;2024-03-17T02:23:19;3.90;99.90
53208;DHT22;39093;52.788;6.940;2024-03-17T02:25:45;3.90;99.90
53208;DHT22;39093;52.788;6.940;2024-03-17T02:28:12;3.90;99.90
53208;DHT22;39093;52.788;6.940;2024-03-17T02:30:38;3.90;99.90
53208;DHT22;39093;52.788;6.940;2024-03-17T02:33:04;3.90;99.90
53208;DHT22;39093;52.788;6.940;2024-03-17T02:35:30;3.80;99.90
53208;DHT22;39093;52.788;6.940;2024-03-17T02:37:56;3.80;99.90
53208;DHT22;39093;52.788;6.940;2024-03-17T02:40:22;3.80;99.90
53208;DHT22;39093;52.788;6.940;2024-03-17T02:42:48;3.70;99.90
53208;DHT22;39093;52.788;6.940;2024-03-17T02:45:14;3.80;99.90
53208;DHT22;39093;52.788;6.940;2024-03-17T02:47:41;3.70;99.90
53208;DHT22;39093;52.788;6.940;2024-03-17T02:50:08;3.70;99.90
53208;DHT22;39093;52.788;6.940;2024-03-17T02:52:35;3.70;99.90
53208;DHT22;39093;52.788;6.940;2024-03-17T02:55:00;3.60;99.90
53208;DHT22;39093;52.788;6.940;2024-03-17T02:57:27;3.70;99.90
53208;DHT22;39093;52.788;6.940;2024-03-17T02:59:58;3.60;99.90
53208;DHT22;39093;52.788;6.940;2024-03-17T03:02:24;3.60;99.90
53208;DHT22;39093;52.788;6.940;2024-03-17T03:04:50;3.60;99.90
53208;DHT22;39093;52.788;6.940;2024-03-17T03:07:16;3.60;99.90
53208;DHT22;39093;52.788;6.940;2024-03-17T03:09:42;3.50;99.90
53208;DHT22;39093;52.788;6.940;2024-03-17T03:12:08;3.50;99.90
53208;DHT22;39093;52.788;6.940;2024-03-17T03:14:34;3.50;99.90
53208;DHT22;39093;52.788;6.940;2024-03-17T03:17:00;3.50;99.90
53208;DHT22;39093;52.788;6.940;2024-03-17T03:19:27;3.50;99.90
53208;DHT22;39093;52.788;6.940;2024-03-17T03:21:53;3.50;99.90
53208;DHT22;39093;52.788;6.940;2024-03-17T03:24:19;3.50;99.90
53208;DHT22;39093;52.788;6.940;2024-03-17T03:26:45;3.50;99.90
53208;DHT22;39093;52.788;6.940;2024-03-17T03:29:11;3.50;99.90
53208;DHT22;39093;52.788;6.940;2024-03-17T03:31:37;3.40;99.90
53208;DHT22;39093;52.788;6.940;2024-03-17T03:34:06;3.40;99.90
53208;DHT22;39093;52.788;6.940;2024-03-17T03:36:34;3.40;99.90
53208;DHT22;39093;52.788;6.940;2024-03-17T03:39:02;3.40;99.90
53208;DHT22;39093;52.788;6.940;2024-03-17T03:41:31;3.40;99.90
53208;DHT22;39093;52.788;6.940;2024-03-17T03:43:58;3.40;99.90
53208;DHT22;39093;52.788;6.940;2024-03-17T03:46:24;3.30;99.90
53208;DHT22;39093;52.788;6.940;2024-03-17T03:48:51;3.40;99.90
53208;DHT22;39093;52.788;6.940;2024-03-17T03:51:17;3.30;99.90
53208;DHT22;39093;52.788;6.940;2024-03-17T03:53:43;3.30;99.90
53208;DHT22;39093;52.788;6.940;2024-03-17T03:56:09;3.30;99.90
53208;DHT22;39093;52.788;6.940;2024-03-17T03:58:37;3.40;99.90
53208;DHT22;39093;52.788;6.940;2024-03-17T04:01:09;3.40;99.90
53208;DHT22;39093;52.788;6.940;2024-03-17T04:03:37;3.30;99.90
53208;DHT22;39093;52.788;6.940;2024-03-17T04:06:08;3.30;99.90
53208;DHT22;39093;52.788;6.940;2024-03-17T04:08:35;3.30;99.90
53208;DHT22;39093;52.788;6.940;2024-03-17T04:11:02;3.30;99.90
53208;DHT22;39093;52.788;6.940;2024-03-17T04:13:29;3.30;99.90
53208;DHT22;39093;52.788;6.940;2024-03-17T04:16:00;3.30;99.90
53208;DHT22;39093;52.788;6.940;2024-03-17T04:18:26;3.30;99.90
53208;DHT22;39093;52.788;6.940;2024-03-17T04:20:57;3.30;99.90
53208;DHT22;39093;52.788;6.940;2024-03-17T04:23:23;3.40;99.90
53208;DHT22;39093;52.788;6.940;2024-03-17T04:25:53;3.40;99.90
53208;DHT22;39093;52.788;6.940;2024-03-17T04:28:19;3.40;99.90
53208;DHT22;39093;52.788;6.940;2024-03-17T04:30:45;3.40;99.90
53208;DHT22;39093;52.788;6.940;2024-03-17T04:33:15;3.40;99.90
53208;DHT22;39093;52.788;6.940;2024-03-17T04:35:42;3.40;99.90
53208;DHT22;39093;52.788;6.940;2024-03-17T04:38:08;3.40;99.90
53208;DHT22;39093;52.788;6.940;2024-03-17T04:40:41;3.40;99.90
53208;DHT22;39093;52.788;6.940;2024-03-17T04:43:08;3.40;99.90
53208;DHT22;39093;52.788;6.940;2024-03-17T04:45:34;3.40;99.90
53208;DHT22;39093;52.788;6.940;2024-03-17T04:48:00;3.50;99.90
53208;DHT22;39093;52.788;6.940;2024-03-17T04:50:26;3.50;99.90
53208;DHT22;39093;52.788;6.940;2024-03-17T04:53:00;3.50;99.90
53208;DHT22;39093;52.788;6.940;2024-03-17T04:55:26;3.60;99.90
53208;DHT22;39093;52.788;6.940;2024-03-17T04:57:52;3.60;99.90
53208;DHT22;39093;52.788;6.940;2024-03-17T05:00:18;3.60;99.90
53208;DHT22;39093;52.788;6.940;2024-03-17T05:02:45;3.60;99.90
53208;DHT22;39093;52.788;6.940;2024-03-17T05:05:11;3.60;99.90
53208;DHT22;39093;52.788;6.940;2024-03-17T05:07:37;3.60;99.90
53208;DHT22;39093;52.788;6.940;2024-03-17T05:10:04;3.60;99.90
53208;DHT22;39093;52.788;6.940;2024-03-17T05:12:30;3.60;99.90
53208;DHT22;39093;52.788;6.940;2024-03-17T05:14:56;3.70;99.90
53208;DHT22;39093;52.788;6.940;2024-03-17T05:17:22;3.70;99.90
53208;DHT22;39093;52.788;6.940;2024-03-17T05:19:48;3.70;99.90
53208;DHT22;39093;52.788;6.940;2024-03-17T05:22:14;3.70;99.90
53208;DHT22;39093;52.788;6.940;2024-03-17T05:24:40;3.80;99.90
53208;DHT22;39093;52.788;6.940;2024-03-17T05:27:06;3.80;99.90
53208;DHT22;39093;52.788;6.940;2024-03-17T05:29:32;3.80;99.90
53208;DHT22;39093;52.788;6.940;2024-03-17T05:31:58;3.80;99.90
53208;DHT22;39093;52.788;6.940;2024-03-17T05:34:24;3.80;99.90
53208;DHT22;39093;52.788;6.940;2024-03-17T05:36:51;3.80;99.90
53208;DHT22;39093;52.788;6.940;2024-03-17T05:39:17;3.80;99.90
53208;DHT22;39093;52.788;6.940;2024-03-17T05:41:43;3.80;99.90
53208;DHT22;39093;52.788;6.940;2024-03-17T05:44:09;3.80;99.90
53208;DHT22;39093;52.788;6.940;2024-03-17T05:46:35;3.80;99.90
53208;DHT22;39093;52.788;6.940;2024-03-17T05:49:01;3.80;99.90
53208;DHT22;39093;52.788;6.940;2024-03-17T05:51:29;3.80;99.90
53208;DHT22;39093;52.788;6.940;2024-03-17T05:53:55;3.80;99.90
53208;DHT22;39093;52.788;6.940;2024-03-17T05:56:24;3.80;99.90
53208;DHT22;39093;52.788;6.940;2024-03-17T05:58:50;3.80;99.90
53208;DHT22;39093;52.788;6.940;2024-03-17T06:01:16;3.80;99.90
53208;DHT22;39093;52.788;6.940;2024-03-17T06:03:42;3.80;99.90
53208;DHT22;39093;52.788;6.940;2024-03-17T06:06:08;3.80;99.90
53208;DHT22;39093;52.788;6.940;2024-03-17T06:08:38;3.90;99.90
53208;DHT22;39093;52.788;6.940;2024-03-17T06:11:07;3.80;99.90
53208;DHT22;39093;52.788;6.940;2024-03-17T06:13:34;3.90;99.90
53208;DHT22;39093;52.788;6.940;2024-03-17T06:16:02;3.90;99.90
53208;DHT22;39093;52.788;6.940;2024-03-17T06:18:28;3.90;99.90
53208;DHT22;39093;52.788;6.940;2024-03-17T06:20:54;3.90;99.90
53208;DHT22;39093;52.788;6.940;2024-03-17T06:23:24;3.90;99.90
53208;DHT22;39093;52.788;6.940;2024-03-17T06:25:50;3.90;99.90
53208;DHT22;39093;52.788;6.940;2024-03-17T06:28:17;3.90;99.90
53208;DHT22;39093;52.788;6.940;2024-03-17T06:30:54;3.90;99.90
53208;DHT22;39093;52.788;6.940;2024-03-17T06:33:21;4.00;99.90
53208;DHT22;39093;52.788;6.940;2024-03-17T06:35:47;4.00;99.90
53208;DHT22;39093;52.788;6.940;2024-03-17T06:38:14;4.00;99.90
53208;DHT22;39093;52.788;6.940;2024-03-17T06:40:41;3.70;99.90
53208;DHT22;39093;52.788;6.940;2024-03-17T06:43:07;4.10;99.90
53208;DHT22;39093;52.788;6.940;2024-03-17T06:45:33;4.20;99.90
53208;DHT22;39093;52.788;6.940;2024-03-17T06:48:00;4.20;99.90
53208;DHT22;39093;52.788;6.940;2024-03-17T06:50:26;4.30;99.90
53208;DHT22;39093;52.788;6.940;2024-03-17T06:52:52;4.40;99.90
53208;DHT22;39093;52.788;6.940;2024-03-17T06:55:18;4.50;99.90
53208;DHT22;39093;52.788;6.940;2024-03-17T06:57:47;4.60;99.90
53208;DHT22;39093;52.788;6.940;2024-03-17T07:00:13;4.60;99.90
53208;DHT22;39093;52.788;6.940;2024-03-17T07:02:49;4.70;99.90
53208;DHT22;39093;52.788;6.940;2024-03-17T07:05:15;4.80;99.90
53208;DHT22;39093;52.788;6.940;2024-03-17T07:07:42;4.80;99.90
53208;DHT22;39093;52.788;6.940;2024-03-17T07:10:09;4.90;99.90
53208;DHT22;39093;52.788;6.940;2024-03-17T07:12:40;5.00;99.90
53208;DHT22;39093;52.788;6.940;2024-03-17T07:15:06;5.10;99.90
53208;DHT22;39093;52.788;6.940;2024-03-17T07:17:33;5.10;99.90
53208;DHT22;39093;52.788;6.940;2024-03-17T07:19:59;5.20;99.90
53208;DHT22;39093;52.788;6.940;2024-03-17T07:22:25;5.30;99.90
53208;DHT22;39093;52.788;6.940;2024-03-17T07:24:55;5.30;99.90
53208;DHT22;39093;52.788;6.940;2024-03-17T07:27:23;5.40;99.90
53208;DHT22;39093;52.788;6.940;2024-03-17T07:29:49;5.50;99.90
53208;DHT22;39093;52.788;6.940;2024-03-17T07:32:15;5.50;99.90
53208;DHT22;39093;52.788;6.940;2024-03-17T07:34:41;5.60;99.90
53208;DHT22;39093;52.788;6.940;2024-03-17T07:37:08;5.70;99.90
53208;DHT22;39093;52.788;6.940;2024-03-17T07:39:34;5.70;99.90
53208;DHT22;39093;52.788;6.940;2024-03-17T07:42:00;5.80;99.90
53208;DHT22;39093;52.788;6.940;2024-03-17T07:44:30;5.70;99.90
53208;DHT22;39093;52.788;6.940;2024-03-17T07:47:03;5.80;99.90
53208;DHT22;39093;52.788;6.940;2024-03-17T07:49:30;5.80;99.90
53208;DHT22;39093;52.788;6.940;2024-03-17T07:51:56;5.80;99.90
53208;DHT22;39093;52.788;6.940;2024-03-17T07:54:26;5.80;99.90
53208;DHT22;39093;52.788;6.940;2024-03-17T07:56:53;5.90;99.90
53208;DHT22;39093;52.788;6.940;2024-03-17T07:59:19;6.00;99.90
53208;DHT22;39093;52.788;6.940;2024-03-17T08:01:45;6.10;99.90
53208;DHT22;39093;52.788;6.940;2024-03-17T08:04:11;6.20;99.90
53208;DHT22;39093;52.788;6.940;2024-03-17T08:06:41;6.30;99.90
53208;DHT22;39093;52.788;6.940;2024-03-17T08:09:08;6.40;99.90
53208;DHT22;39093;52.788;6.940;2024-03-17T08:11:34;6.50;99.90
53208;DHT22;39093;52.788;6.940;2024-03-17T08:14:00;6.60;99.90
53208;DHT22;39093;52.788;6.940;2024-03-17T08:16:27;6.70;99.90
53208;DHT22;39093;52.788;6.940;2024-03-17T08:18:55;6.80;99.90
53208;DHT22;39093;52.788;6.940;2024-03-17T08:21:21;7.00;99.90
53208;DHT22;39093;52.788;6.940;2024-03-17T08:23:48;7.10;99.90
53208;DHT22;39093;52.788;6.940;2024-03-17T08:26:14;7.20;99.90
53208;DHT22;39093;52.788;6.940;2024-03-17T08:28:40;7.40;99.90
53208;DHT22;39093;52.788;6.940;2024-03-17T08:31:06;7.50;99.90
53208;DHT22;39093;52.788;6.940;2024-03-17T08:33:32;7.60;99.90
53208;DHT22;39093;52.788;6.940;2024-03-17T08:36:04;7.70;99.90
53208;DHT22;39093;52.788;6.940;2024-03-17T08:38:32;7.70;99.90
53208;DHT22;39093;52.788;6.940;2024-03-17T08:41:08;7.80;99.90
53208;DHT22;39093;52.788;6.940;2024-03-17T08:43:35;7.80;99.90
53208;DHT22;39093;52.788;6.940;2024-03-17T08:46:07;7.90;99.90
53208;DHT22;39093;52.788;6.940;2024-03-17T08:48:38;8.00;99.90
53208;DHT22;39093;52.788;6.940;2024-03-17T08:51:05;8.00;99.90
53208;DHT22;39093;52.788;6.940;2024-03-17T08:53:32;8.00;99.90
53208;DHT22;39093;52.788;6.940;2024-03-17T08:55:58;8.10;99.90
53208;DHT22;39093;52.788;6.940;2024-03-17T08:58:25;8.20;99.90
53208;DHT22;39093;52.788;6.940;2024-03-17T09:00:51;8.10;99.90
53208;DHT22;39093;52.788;6.940;2024-03-17T09:03:18;8.30;99.90
53208;DHT22;39093;52.788;6.940;2024-03-17T09:05:46;8.30;99.90
53208;DHT22;39093;52.788;6.940;2024-03-17T09:08:17;8.50;99.90
53208;DHT22;39093;52.788;6.940;2024-03-17T09:10:46;8.40;99.90
53208;DHT22;39093;52.788;6.940;2024-03-17T09:13:17;8.40;99.90
53208;DHT22;39093;52.788;6.940;2024-03-17T09:15:57;8.40;99.90
53208;DHT22;39093;52.788;6.940;2024-03-17T09:18:29;8.40;99.90
53208;DHT22;39093;52.788;6.940;2024-03-17T09:20:57;8.40;99.90
53208;DHT22;39093;52.788;6.940;2024-03-17T09:23:23;8.50;99.90
53208;DHT22;39093;52.788;6.940;2024-03-17T09:26:00;8.50;99.90
53208;DHT22;39093;52.788;6.940;2024-03-17T09:28:27;8.50;99.90
53208;DHT22;39093;52.788;6.940;2024-03-17T09:30:54;8.70;99.90
53208;DHT22;39093;52.788;6.940;2024-03-17T09:33:21;8.70;99.90
53208;DHT22;39093;52.788;6.940;2024-03-17T09:35:59;8.80;99.90
53208;DHT22;39093;52.788;6.940;2024-03-17T09:38:26;8.90;99.90
53208;DHT22;39093;52.788;6.940;2024-03-17T09:40:53;9.10;99.90
53208;DHT22;39093;52.788;6.940;2024-03-17T09:43:21;9.40;99.90
53208;DHT22;39093;52.788;6.940;2024-03-17T09:45:48;9.80;99.90
53208;DHT22;39093;52.788;6.940;2024-03-17T09:48:15;9.90;99.90
53208;DHT22;39093;52.788;6.940;2024-03-17T09:51:00;10.00;99.90
53208;DHT22;39093;52.788;6.940;2024-03-17T09:53:30;10.20;99.90
53208;DHT22;39093;52.788;6.940;2024-03-17T09:58:23;10.60;99.90
53208;DHT22;39093;52.788;6.940;2024-03-17T10:00:49;10.60;99.90
53208;DHT22;39093;52.788;6.940;2024-03-17T10:03:47;10.80;99.90
53208;DHT22;39093;52.788;6.940;2024-03-17T10:06:31;10.80;99.90
53208;DHT22;39093;52.788;6.940;2024-03-17T10:08:58;10.70;99.90
53208;DHT22;39093;52.788;6.940;2024-03-17T10:11:35;10.70;99.90
53208;DHT22;39093;52.788;6.940;2024-03-17T10:14:03;10.80;99.90
53208;DHT22;39093;52.788;6.940;2024-03-17T10:16:31;11.70;99.90
53208;DHT22;39093;52.788;6.940;2024-03-17T10:19:08;12.80;99.90
53208;DHT22;39093;52.788;6.940;2024-03-17T10:21:37;13.70;99.90
53208;DHT22;39093;52.788;6.940;2024-03-17T10:24:13;14.50;99.90
53208;DHT22;39093;52.788;6.940;2024-03-17T10:26:44;15.10;99.90
53208;DHT22;39093;52.788;6.940;2024-03-17T10:29:29;15.30;99.90
53208;DHT22;39093;52.788;6.940;2024-03-17T10:32:14;15.40;99.90
53208;DHT22;39093;52.788;6.940;2024-03-17T10:34:42;15.30;99.90
53208;DHT22;39093;52.788;6.940;2024-03-17T10:37:14;15.10;99.90
53208;DHT22;39093;52.788;6.940;2024-03-17T10:39:41;14.80;99.90
53208;DHT22;39093;52.788;6.940;2024-03-17T10:42:09;14.70;99.90
53208;DHT22;39093;52.788;6.940;2024-03-17T10:44:45;14.80;99.90
53208;DHT22;39093;52.788;6.940;2024-03-17T10:47:22;14.60;99.90
53208;DHT22;39093;52.788;6.940;2024-03-17T10:49:56;14.40;99.90
53208;DHT22;39093;52.788;6.940;2024-03-17T10:52:23;14.30;99.90
53208;DHT22;39093;52.788;6.940;2024-03-17T10:54:53;14.20;99.90
53208;DHT22;39093;52.788;6.940;2024-03-17T10:59:53;14.40;99.90
53208;DHT22;39093;52.788;6.940;2024-03-17T11:02:23;14.50;99.90
53208;DHT22;39093;52.788;6.940;2024-03-17T11:05:03;14.20;99.90
53208;DHT22;39093;52.788;6.940;2024-03-17T11:07:30;13.90;99.90
53208;DHT22;39093;52.788;6.940;2024-03-17T11:10:03;13.70;99.90
53208;DHT22;39093;52.788;6.940;2024-03-17T11:17:49;13.20;99.90
53208;DHT22;39093;52.788;6.940;2024-03-17T11:20:27;13.10;99.90
53208;DHT22;39093;52.788;6.940;2024-03-17T11:22:56;13.20;99.90
53208;DHT22;39093;52.788;6.940;2024-03-17T11:27:55;13.10;99.90
53208;DHT22;39093;52.788;6.940;2024-03-17T11:30:49;13.10;99.90
53208;DHT22;39093;52.788;6.940;2024-03-17T11:41:39;12.80;99.90
53208;DHT22;39093;52.788;6.940;2024-03-17T11:44:23;12.70;99.90
53208;DHT22;39093;52.788;6.940;2024-03-17T11:46:54;12.70;99.90
53208;DHT22;39093;52.788;6.940;2024-03-17T11:49:30;12.60;99.90
53208;DHT22;39093;52.788;6.940;2024-03-17T11:51:58;12.50;99.90
53208;DHT22;39093;52.788;6.940;2024-03-17T11:54:30;12.50;99.90
53208;DHT22;39093;52.788;6.940;2024-03-17T11:57:01;12.50;99.90
53208;DHT22;39093;52.788;6.940;2024-03-17T11:59:27;12.40;99.90
53208;DHT22;39093;52.788;6.940;2024-03-17T12:01:53;12.40;99.90
53208;DHT22;39093;52.788;6.940;2024-03-17T12:04:21;12.20;99.30
53208;DHT22;39093;52.788;6.940;2024-03-17T12:06:52;12.20;99.80
53208;DHT22;39093;52.788;6.940;2024-03-17T12:09:20;12.10;99.90
53208;DHT22;39093;52.788;6.940;2024-03-17T12:11:51;12.10;99.90
53208;DHT22;39093;52.788;6.940;2024-03-17T12:14:23;12.10;99.90
53208;DHT22;39093;52.788;6.940;2024-03-17T12:19:18;12.20;99.90
53208;DHT22;39093;52.788;6.940;2024-03-17T12:21:46;12.30;99.90
53208;DHT22;39093;52.788;6.940;2024-03-17T12:24:19;12.20;99.70
53208;DHT22;39093;52.788;6.940;2024-03-17T12:26:46;12.10;99.90
53208;DHT22;39093;52.788;6.940;2024-03-17T12:29:27;12.10;99.90
53208;DHT22;39093;52.788;6.940;2024-03-17T12:31:57;12.10;99.90
53208;DHT22;39093;52.788;6.940;2024-03-17T12:34:25;12.10;99.90
53208;DHT22;39093;52.788;6.940;2024-03-17T12:36:53;12.20;99.20
53208;DHT22;39093;52.788;6.940;2024-03-17T12:39:27;12.10;99.50
53208;DHT22;39093;52.788;6.940;2024-03-17T12:44:50;12.20;99.00
53208;DHT22;39093;52.788;6.940;2024-03-17T12:47:18;12.20;99.00
53208;DHT22;39093;52.788;6.940;2024-03-17T12:50:08;12.30;99.40
53208;DHT22;39093;52.788;6.940;2024-03-17T12:52:36;12.30;98.20
53208;DHT22;39093;52.788;6.940;2024-03-17T12:55:04;12.20;98.50
53208;DHT22;39093;52.788;6.940;2024-03-17T13:01:08;12.20;97.80
53208;DHT22;39093;52.788;6.940;2024-03-17T13:03:37;12.20;97.10
53208;DHT22;39093;52.788;6.940;2024-03-17T13:06:08;12.30;98.10
53208;DHT22;39093;52.788;6.940;2024-03-17T13:08:35;12.30;97.90
53208;DHT22;39093;52.788;6.940;2024-03-17T13:11:01;12.40;97.50
53208;DHT22;39093;52.788;6.940;2024-03-17T13:13:30;12.40;97.60
53208;DHT22;39093;52.788;6.940;2024-03-17T13:15:55;12.40;98.00
53208;DHT22;39093;52.788;6.940;2024-03-17T13:18:21;12.40;97.60
53208;DHT22;39093;52.788;6.940;2024-03-17T13:20:48;12.50;97.40
53208;DHT22;39093;52.788;6.940;2024-03-17T13:23:19;12.50;98.10
53208;DHT22;39093;52.788;6.940;2024-03-17T13:25:47;12.50;98.30
53208;DHT22;39093;52.788;6.940;2024-03-17T13:28:13;12.60;98.20
53208;DHT22;39093;52.788;6.940;2024-03-17T13:30:40;12.60;97.60
53208;DHT22;39093;52.788;6.940;2024-03-17T13:33:07;12.60;98.20
53208;DHT22;39093;52.788;6.940;2024-03-17T13:35:38;12.70;97.60
53208;DHT22;39093;52.788;6.940;2024-03-17T13:38:09;12.60;98.00
53208;DHT22;39093;52.788;6.940;2024-03-17T13:40:40;12.70;98.40
53208;DHT22;39093;52.788;6.940;2024-03-17T13:43:07;12.70;97.80
53208;DHT22;39093;52.788;6.940;2024-03-17T13:45:38;12.80;97.20
53208;DHT22;39093;52.788;6.940;2024-03-17T13:48:06;12.70;96.70
53208;DHT22;39093;52.788;6.940;2024-03-17T13:50:37;12.60;96.40
53208;DHT22;39093;52.788;6.940;2024-03-17T13:53:04;12.50;96.30
53208;DHT22;39093;52.788;6.940;2024-03-17T13:55:30;12.50;97.30
53208;DHT22;39093;52.788;6.940;2024-03-17T13:57:57;12.50;97.30
53208;DHT22;39093;52.788;6.940;2024-03-17T14:00:26;12.50;98.20
53208;DHT22;39093;52.788;6.940;2024-03-17T14:02:53;12.50;97.40
53208;DHT22;39093;52.788;6.940;2024-03-17T14:05:20;12.40;98.50
53208;DHT22;39093;52.788;6.940;2024-03-17T14:07:47;12.40;98.90
53208;DHT22;39093;52.788;6.940;2024-03-17T14:10:16;12.40;98.50
53208;DHT22;39093;52.788;6.940;2024-03-17T14:12:42;12.40;98.80
53208;DHT22;39093;52.788;6.940;2024-03-17T14:15:09;12.40;99.30
53208;DHT22;39093;52.788;6.940;2024-03-17T14:17:39;12.40;99.60
53208;DHT22;39093;52.788;6.940;2024-03-17T14:20:06;12.30;98.60
53208;DHT22;39093;52.788;6.940;2024-03-17T14:22:42;12.30;98.60
53208;DHT22;39093;52.788;6.940;2024-03-17T14:25:10;12.20;98.00
53208;DHT22;39093;52.788;6.940;2024-03-17T14:27:38;12.20;98.20
53208;DHT22;39093;52.788;6.940;2024-03-17T14:30:05;12.10;98.20
53208;DHT22;39093;52.788;6.940;2024-03-17T14:32:31;12.10;98.40
53208;DHT22;39093;52.788;6.940;2024-03-17T14:34:58;12.10;98.20
53208;DHT22;39093;52.788;6.940;2024-03-17T14:37:23;12.10;98.50
53208;DHT22;39093;52.788;6.940;2024-03-17T14:39:51;12.10;99.00
53208;DHT22;39093;52.788;6.940;2024-03-17T14:42:19;12.10;99.00
53208;DHT22;39093;52.788;6.940;2024-03-17T14:44:45;12.10;98.60
53208;DHT22;39093;52.788;6.940;2024-03-17T14:47:16;12.10;98.90
53208;DHT22;39093;52.788;6.940;2024-03-17T14:49:42;12.10;99.00
53208;DHT22;39093;52.788;6.940;2024-03-17T14:52:09;12.10;99.30
53208;DHT22;39093;52.788;6.940;2024-03-17T14:54:35;12.00;99.50
53208;DHT22;39093;52.788;6.940;2024-03-17T14:57:01;12.00;99.60
53208;DHT22;39093;52.788;6.940;2024-03-17T14:59:27;12.00;99.60
53208;DHT22;39093;52.788;6.940;2024-03-17T15:01:53;12.00;99.50
53208;DHT22;39093;52.788;6.940;2024-03-17T15:04:19;12.00;99.60
53208;DHT22;39093;52.788;6.940;2024-03-17T15:06:45;11.90;99.80
53208;DHT22;39093;52.788;6.940;2024-03-17T15:09:11;12.00;99.90
53208;DHT22;39093;52.788;6.940;2024-03-17T15:11:45;11.90;99.60
53208;DHT22;39093;52.788;6.940;2024-03-17T15:14:12;12.00;99.20
53208;DHT22;39093;52.788;6.940;2024-03-17T15:16:38;11.80;99.30
53208;DHT22;39093;52.788;6.940;2024-03-17T15:19:07;11.80;99.00
53208;DHT22;39093;52.788;6.940;2024-03-17T15:21:33;11.80;99.60
53208;DHT22;39093;52.788;6.940;2024-03-17T15:24:00;11.80;99.90
53208;DHT22;39093;52.788;6.940;2024-03-17T15:26:28;11.80;99.90
53208;DHT22;39093;52.788;6.940;2024-03-17T15:28:55;11.80;99.90
53208;DHT22;39093;52.788;6.940;2024-03-17T15:31:21;11.80;99.90
53208;DHT22;39093;52.788;6.940;2024-03-17T15:33:50;11.80;99.90
53208;DHT22;39093;52.788;6.940;2024-03-17T15:36:17;11.70;99.90
53208;DHT22;39093;52.788;6.940;2024-03-17T15:38:43;11.70;99.90
53208;DHT22;39093;52.788;6.940;2024-03-17T15:41:10;11.80;99.90
53208;DHT22;39093;52.788;6.940;2024-03-17T15:43:39;11.70;99.90
53208;DHT22;39093;52.788;6.940;2024-03-17T15:46:14;11.80;99.90
53208;DHT22;39093;52.788;6.940;2024-03-17T15:48:42;11.70;99.90
53208;DHT22;39093;52.788;6.940;2024-03-17T15:51:08;11.70;99.90
53208;DHT22;39093;52.788;6.940;2024-03-17T15:53:33;11.70;99.90
53208;DHT22;39093;52.788;6.940;2024-03-17T15:56:02;11.70;99.90
53208;DHT22;39093;52.788;6.940;2024-03-17T15:58:30;11.70;99.90
53208;DHT22;39093;52.788;6.940;2024-03-17T16:00:57;11.70;99.90
53208;DHT22;39093;52.788;6.940;2024-03-17T16:03:28;11.70;99.90
53208;DHT22;39093;52.788;6.940;2024-03-17T16:05:57;11.60;99.90
53208;DHT22;39093;52.788;6.940;2024-03-17T16:08:25;11.60;99.90
53208;DHT22;39093;52.788;6.940;2024-03-17T16:11:00;11.60;99.90
53208;DHT22;39093;52.788;6.940;2024-03-17T16:13:27;11.60;99.90
53208;DHT22;39093;52.788;6.940;2024-03-17T16:15:57;11.60;99.90